createdAt,value
2022-08-17T00:00:01.610Z,50.78
2022-08-17T00:05:04.350Z,51.15
2022-08-17T00:09:54.000Z,52.10
2022-08-17T00:14:43.686Z,53.53
2022-08-17T00:19:34.149Z,54.43
2022-08-17T00:24:27.823Z,52.83
2022-08-17T00:29:19.854Z,53.60
2022-08-17T00:34:10.675Z,53.60
2022-08-17T00:39:00.378Z,53.85
2022-08-17T00:43:54.594Z,52.57
2022-08-17T00:48:45.568Z,54.73
2022-08-17T00:53:37.745Z,55.38
2022-08-17T00:58:36.302Z,54.95
2022-08-17T01:03:29.182Z,56.17
2022-08-17T01:08:22.283Z,57.27
2022-08-17T01:13:12.554Z,55.60
2022-08-17T01:18:02.165Z,51.53
2022-08-17T01:22:55.134Z,56.60
2022-08-17T01:27:45.744Z,52.97
2022-08-17T01:32:36.302Z,53.23
2022-08-17T01:37:32.730Z,52.85
2022-08-17T01:42:33.603Z,51.13
2022-08-17T01:47:23.290Z,53.33
2022-08-17T01:52:15.058Z,55.67
2022-08-17T01:57:06.226Z,55.28
2022-08-17T02:01:59.057Z,56.87
2022-08-17T02:06:53.214Z,61.50
2022-08-17T02:11:44.059Z,63.00
2022-08-17T02:16:38.301Z,60.28
2022-08-17T02:21:32.932Z,51.38
2022-08-17T02:26:24.022Z,50.87
2022-08-17T02:31:16.902Z,54.00
2022-08-17T02:36:08.988Z,58.67
2022-08-17T02:41:01.810Z,60.95
2022-08-17T02:45:51.508Z,59.03
2022-08-17T02:50:51.609Z,62.63
2022-08-17T02:55:44.260Z,69.70
2022-08-17T03:00:41.433Z,73.40
2022-08-17T03:05:34.277Z,75.60
2022-08-17T03:10:25.698Z,78.53
2022-08-17T03:15:20.383Z,78.38
2022-08-17T03:20:14.938Z,74.20
2022-08-17T03:25:06.683Z,77.63
2022-08-17T03:30:00.599Z,75.80
2022-08-17T03:34:50.592Z,74.03
2022-08-17T03:39:43.118Z,69.03
2022-08-17T03:44:32.874Z,62.37
2022-08-17T03:49:35.273Z,53.70
2022-08-17T03:54:37.869Z,51.87
2022-08-17T03:59:31.208Z,49.70
2022-08-17T04:04:27.528Z,47.63
2022-08-17T04:09:17.999Z,43.28
2022-08-17T04:14:09.354Z,42.50
2022-08-17T04:19:01.631Z,40.17
2022-08-17T04:23:51.572Z,38.77
2022-08-17T04:28:42.297Z,38.30
2022-08-17T04:33:32.718Z,38.15
2022-08-17T04:38:27.388Z,40.13
2022-08-17T04:43:20.285Z,38.20
2022-08-17T04:48:09.950Z,42.10
2022-08-17T04:53:00.615Z,44.97
2022-08-17T04:57:53.307Z,46.63
2022-08-17T05:02:49.819Z,46.92
2022-08-17T05:07:40.571Z,45.08
2022-08-17T05:12:30.258Z,46.10
2022-08-17T05:17:22.876Z,49.97
2022-08-17T05:22:12.774Z,49.80
2022-08-17T05:27:06.504Z,48.40
2022-08-17T05:31:58.238Z,47.78
2022-08-17T05:36:50.528Z,48.53
2022-08-17T05:41:40.814Z,48.03
2022-08-17T05:46:36.003Z,48.05
2022-08-17T05:52:12.517Z,45.42
2022-08-17T05:57:33.126Z,43.42
2022-08-17T06:02:32.157Z,45.15
2022-08-17T06:07:34.620Z,44.33
2022-08-17T06:12:46.933Z,42.70
2022-08-17T06:17:38.710Z,43.90
2022-08-17T06:22:37.115Z,41.38
2022-08-17T06:27:35.932Z,39.80
2022-08-17T06:32:27.355Z,38.85
2022-08-17T06:37:33.411Z,37.30
2022-08-17T06:42:55.125Z,35.42
2022-08-17T06:47:57.648Z,37.70
2022-08-17T06:52:56.829Z,35.07
2022-08-17T06:57:54.000Z,34.30
2022-08-17T07:02:53.212Z,35.75
2022-08-17T07:08:07.260Z,33.93
2022-08-17T07:13:15.436Z,35.53
2022-08-17T07:18:07.242Z,35.63
2022-08-17T07:23:12.387Z,33.10
2022-08-17T07:28:09.218Z,30.42
2022-08-17T07:33:02.947Z,31.42
2022-08-17T07:38:06.071Z,30.50
2022-08-17T07:43:31.486Z,31.77
2022-08-17T07:48:25.405Z,28.20
2022-08-17T07:53:20.893Z,26.42
2022-08-17T07:58:14.517Z,27.08
2022-08-17T08:03:17.960Z,28.52
2022-08-17T08:08:23.568Z,29.42
2022-08-17T08:13:17.981Z,27.87
2022-08-17T08:18:53.587Z,28.35
2022-08-17T08:23:49.434Z,24.30
2022-08-17T08:28:48.141Z,25.13
2022-08-17T08:33:52.043Z,23.60
2022-08-17T08:38:54.012Z,21.83
2022-08-17T08:43:53.265Z,20.65
2022-08-17T08:49:12.273Z,20.45
2022-08-17T08:54:09.837Z,21.02
2022-08-17T08:59:10.762Z,20.50
2022-08-17T09:04:25.135Z,19.27
2022-08-17T09:09:31.375Z,18.53
2022-08-17T09:14:29.681Z,19.95
2022-08-17T09:19:31.833Z,20.08
2022-08-17T09:24:30.402Z,21.33
2022-08-17T09:29:35.345Z,22.23
2022-08-17T09:34:36.947Z,22.30
2022-08-17T09:39:35.526Z,20.35
2022-08-17T09:44:39.824Z,19.55
2022-08-17T09:49:40.915Z,19.30
2022-08-17T09:54:41.280Z,18.17
2022-08-17T09:59:56.941Z,17.73
2022-08-17T10:05:02.540Z,17.27
2022-08-17T10:10:01.980Z,14.93
2022-08-17T10:15:17.478Z,12.68
2022-08-17T10:20:16.288Z,11.83
2022-08-17T10:25:24.879Z,11.70
2022-08-17T10:30:23.208Z,10.25
2022-08-17T10:35:40.076Z,11.10
2022-08-17T10:40:43.945Z,11.67
2022-08-17T10:45:41.644Z,14.00
2022-08-17T10:51:01.346Z,14.75
2022-08-17T10:56:27.917Z,14.73
2022-08-17T11:01:19.796Z,17.25
2022-08-17T11:06:21.829Z,17.17
2022-08-17T11:11:25.970Z,18.00
2022-08-17T11:16:48.143Z,21.58
2022-08-17T11:22:03.539Z,25.80
2022-08-17T11:27:12.170Z,26.58
2022-08-17T11:32:11.231Z,28.13
2022-08-17T11:37:36.063Z,31.27
2022-08-17T11:43:00.928Z,33.72
2022-08-17T11:48:28.293Z,34.28
2022-08-17T11:54:03.596Z,35.13
2022-08-17T11:59:07.390Z,35.03
2022-08-17T12:04:29.809Z,37.85
2022-08-17T12:09:34.651Z,38.50
2022-08-17T12:15:05.872Z,39.22
2022-08-17T12:19:45.416Z,40.70
2022-08-17T12:24:52.382Z,39.80
2022-08-17T12:29:47.405Z,39.63
2022-08-17T12:34:45.796Z,37.70
2022-08-17T12:39:37.945Z,40.85
2022-08-17T12:44:32.185Z,41.60
2022-08-17T12:49:30.712Z,40.70
2022-08-17T12:54:30.766Z,39.43
2022-08-17T12:59:30.155Z,38.80
2022-08-17T13:04:23.590Z,41.00
2022-08-17T13:09:35.783Z,44.22
2022-08-17T13:14:32.592Z,43.65
2022-08-17T13:19:39.918Z,42.53
2022-08-17T13:24:38.467Z,44.43
2022-08-17T13:29:35.771Z,42.95
2022-08-17T13:35:04.692Z,42.55
2022-08-17T13:40:01.836Z,39.10
2022-08-17T13:44:58.651Z,40.33
2022-08-17T13:49:50.362Z,39.08
2022-08-17T13:59:55.011Z,40.85
2022-08-17T14:04:48.276Z,41.03
2022-08-17T14:09:41.741Z,41.63
2022-08-17T14:14:34.330Z,42.05
2022-08-17T14:19:31.908Z,43.37
2022-08-17T14:24:28.549Z,45.33
2022-08-17T14:29:19.269Z,44.53
2022-08-17T14:34:11.284Z,43.60
2022-08-17T14:39:05.429Z,42.63
2022-08-17T14:43:57.568Z,43.13
2022-08-17T14:48:57.402Z,45.65
2022-08-17T14:53:48.968Z,42.67
2022-08-17T14:58:43.105Z,41.17
2022-08-17T15:03:35.495Z,43.73
2022-08-17T15:08:25.493Z,42.75
2022-08-17T15:13:21.301Z,44.03
2022-08-17T15:18:13.857Z,40.00
2022-08-17T15:23:04.025Z,41.88
2022-08-17T15:27:57.122Z,39.63
2022-08-17T15:32:54.512Z,38.80
2022-08-17T15:37:48.830Z,38.80
2022-08-17T15:42:41.879Z,38.00
2022-08-17T15:47:35.572Z,39.50
2022-08-17T15:52:28.079Z,38.75
2022-08-17T15:57:21.514Z,39.20
2022-08-17T16:03:44.716Z,40.90
2022-08-17T16:07:27.002Z,43.53
2022-08-17T16:12:24.767Z,39.05
2022-08-17T16:17:39.744Z,38.67
2022-08-17T16:22:37.604Z,37.53
2022-08-17T16:27:32.571Z,39.03
2022-08-17T16:32:31.461Z,41.60
2022-08-17T16:37:23.354Z,43.70
2022-08-17T16:42:27.665Z,42.90
2022-08-17T16:47:20.214Z,45.93
2022-08-17T16:52:12.668Z,47.80
2022-08-17T16:57:04.589Z,49.17
2022-08-17T17:01:54.369Z,48.35
2022-08-17T17:06:57.768Z,47.53
2022-08-17T17:11:52.325Z,49.90
2022-08-17T17:16:51.683Z,41.08
2022-08-17T17:21:52.665Z,40.33
2022-08-17T17:27:09.021Z,52.07
2022-08-17T17:32:10.083Z,50.70
2022-08-17T17:37:10.361Z,44.10
2022-08-17T17:42:07.925Z,43.17
2022-08-17T17:47:02.170Z,44.88
2022-08-17T17:52:10.004Z,45.50
2022-08-17T17:57:19.201Z,42.83
2022-08-17T18:02:37.083Z,43.47
2022-08-17T18:07:42.205Z,40.17
2022-08-17T18:12:43.781Z,39.83
2022-08-17T18:17:39.575Z,40.23
2022-08-17T18:22:35.253Z,38.58
2022-08-17T18:27:30.485Z,36.78
2022-08-17T18:32:43.811Z,36.75
2022-08-17T18:37:45.183Z,37.30
2022-08-17T18:42:39.730Z,35.50
2022-08-17T18:47:33.455Z,34.75
2022-08-17T18:52:30.702Z,32.88
2022-08-17T18:57:33.579Z,35.22
2022-08-17T19:07:42.627Z,32.70
2022-08-17T19:12:40.783Z,31.37
2022-08-17T19:17:39.620Z,31.60
2022-08-17T19:22:41.676Z,31.57
2022-08-17T19:27:46.476Z,32.23
2022-08-17T19:32:47.148Z,32.17
2022-08-17T19:37:46.091Z,31.35
2022-08-17T19:42:50.283Z,29.48
2022-08-17T19:47:55.199Z,29.35
2022-08-17T19:52:54.641Z,29.15
2022-08-17T19:58:02.191Z,28.20
2022-08-17T20:02:58.482Z,29.17
2022-08-17T20:07:58.569Z,28.27
2022-08-17T20:12:56.746Z,27.27
2022-08-17T20:17:52.836Z,28.17
2022-08-17T20:23:01.794Z,26.80
2022-08-17T20:28:02.891Z,27.90
2022-08-17T20:32:59.635Z,26.95
2022-08-17T20:37:56.175Z,27.85
2022-08-17T20:42:46.869Z,29.25
2022-08-17T20:48:07.492Z,27.98
2022-08-17T20:52:59.207Z,28.95
2022-08-17T20:57:51.017Z,28.42
2022-08-17T21:02:45.382Z,27.57
2022-08-17T21:07:55.948Z,27.23
2022-08-17T21:12:50.392Z,29.15
2022-08-17T21:17:53.216Z,29.23
2022-08-17T21:22:57.804Z,27.90
2022-08-17T21:27:58.700Z,27.07
2022-08-17T21:33:23.966Z,26.73
2022-08-17T21:38:17.442Z,25.55
2022-08-17T21:43:20.095Z,24.73
2022-08-17T21:48:17.638Z,23.67
2022-08-17T21:53:09.249Z,26.27
2022-08-17T21:58:13.464Z,24.73
2022-08-17T22:03:10.518Z,24.92
2022-08-17T22:08:16.761Z,24.83
2022-08-17T22:13:16.454Z,24.88
2022-08-17T22:18:11.760Z,27.52
2022-08-17T22:23:29.002Z,27.15
2022-08-17T22:28:40.065Z,28.52
2022-08-17T22:33:39.782Z,28.90
2022-08-17T22:38:36.771Z,28.00
2022-08-17T22:43:34.947Z,27.37
2022-08-17T22:48:29.265Z,26.10
2022-08-17T22:53:34.789Z,26.10
2022-08-17T22:58:40.297Z,26.80
2022-08-17T23:03:30.520Z,24.88
2022-08-17T23:42:43.328Z,14.95
2022-08-17T23:47:37.575Z,16.80
2022-08-17T23:52:28.227Z,14.70
2022-08-17T23:57:33.649Z,14.50
